sensor_id;sensor_type;location;lat;lon;timestamp;pressure;altitude;pressure_sealevel;temperature;humidity
596;BME280;19946;49.306;11.350;2023-03-13T00:00:40;95935.56;;;5.20;100.00
596;BME280;19946;49.306;11.350;2023-03-13T00:03:41;95950.50;;;5.38;100.00
596;BME280;19946;49.306;11.350;2023-03-13T00:06:41;95940.59;;;5.21;100.00
596;BME280;19946;49.306;11.350;2023-03-13T00:09:44;95888.22;;;5.00;100.00
596;BME280;19946;49.306;11.350;2023-03-13T00:12:45;95925.59;;;5.28;100.00
596;BME280;19946;49.306;11.350;2023-03-13T00:15:46;95885.09;;;4.96;100.00
596;BME280;19946;49.306;11.350;2023-03-13T00:18:48;95887.66;;;4.96;100.00
596;BME280;19946;49.306;11.350;2023-03-13T00:21:49;95862.16;;;4.82;100.00
596;BME280;19946;49.306;11.350;2023-03-13T00:24:49;95865.66;;;4.81;100.00
596;BME280;19946;49.306;11.350;2023-03-13T00:27:50;95859.47;;;4.84;100.00
596;BME280;19946;49.306;11.350;2023-03-13T00:30:59;95871.53;;;4.94;100.00
596;BME280;19946;49.306;11.350;2023-03-13T00:34:02;95874.06;;;5.07;100.00
596;BME280;19946;49.306;11.350;2023-03-13T00:37:03;95829.69;;;4.70;100.00
596;BME280;19946;49.306;11.350;2023-03-13T00:40:06;95830.41;;;4.72;100.00
596;BME280;19946;49.306;11.350;2023-03-13T00:43:08;95854.16;;;4.98;100.00
596;BME280;19946;49.306;11.350;2023-03-13T00:46:09;95809.97;;;4.70;100.00
596;BME280;19946;49.306;11.350;2023-03-13T00:49:10;95821.47;;;4.89;100.00
596;BME280;19946;49.306;11.350;2023-03-13T00:52:11;95843.78;;;4.99;100.00
596;BME280;19946;49.306;11.350;2023-03-13T00:55:11;95888.16;;;5.36;100.00
596;BME280;19946;49.306;11.350;2023-03-13T00:58:13;95848.50;;;5.05;100.00
596;BME280;19946;49.306;11.350;2023-03-13T01:01:20;95823.47;;;4.85;100.00
596;BME280;19946;49.306;11.350;2023-03-13T01:04:24;95840.75;;;4.94;100.00
596;BME280;19946;49.306;11.350;2023-03-13T01:07:25;95867.88;;;5.09;100.00
596;BME280;19946;49.306;11.350;2023-03-13T01:10:27;95893.63;;;5.32;100.00
596;BME280;19946;49.306;11.350;2023-03-13T01:13:28;95804.59;;;4.86;100.00
596;BME280;19946;49.306;11.350;2023-03-13T01:16:32;95888.78;;;5.40;100.00
596;BME280;19946;49.306;11.350;2023-03-13T01:19:33;95872.50;;;5.28;100.00
596;BME280;19946;49.306;11.350;2023-03-13T01:22:33;95829.63;;;5.06;100.00
596;BME280;19946;49.306;11.350;2023-03-13T01:25:36;95818.25;;;4.98;100.00
596;BME280;19946;49.306;11.350;2023-03-13T01:28:38;95838.84;;;5.20;100.00
596;BME280;19946;49.306;11.350;2023-03-13T01:31:38;95783.88;;;4.76;100.00
596;BME280;19946;49.306;11.350;2023-03-13T01:34:40;95794.03;;;4.78;100.00
596;BME280;19946;49.306;11.350;2023-03-13T01:37:41;95870.25;;;5.24;100.00
596;BME280;19946;49.306;11.350;2023-03-13T01:40:46;95863.41;;;5.35;100.00
596;BME280;19946;49.306;11.350;2023-03-13T01:43:49;95860.25;;;5.32;100.00
596;BME280;19946;49.306;11.350;2023-03-13T01:46:50;95851.94;;;5.17;100.00
596;BME280;19946;49.306;11.350;2023-03-13T01:50:08;95838.44;;;5.02;100.00
596;BME280;19946;49.306;11.350;2023-03-13T01:53:32;95831.69;;;5.01;100.00
596;BME280;19946;49.306;11.350;2023-03-13T01:56:47;95830.38;;;4.96;100.00
596;BME280;19946;49.306;11.350;2023-03-13T01:59:52;95848.50;;;5.05;100.00
596;BME280;19946;49.306;11.350;2023-03-13T02:02:55;95774.63;;;4.63;100.00
596;BME280;19946;49.306;11.350;2023-03-13T02:05:59;95808.19;;;4.84;100.00
596;BME280;19946;49.306;11.350;2023-03-13T02:09:06;95814.50;;;4.91;100.00
596;BME280;19946;49.306;11.350;2023-03-13T02:12:12;95760.88;;;4.64;100.00
596;BME280;19946;49.306;11.350;2023-03-13T02:15:16;95767.09;;;4.72;100.00
596;BME280;19946;49.306;11.350;2023-03-13T02:18:18;95816.31;;;5.12;100.00
596;BME280;19946;49.306;11.350;2023-03-13T02:21:39;95819.34;;;5.06;100.00
596;BME280;19946;49.306;11.350;2023-03-13T02:24:51;95826.53;;;5.01;100.00
596;BME280;19946;49.306;11.350;2023-03-13T02:31:12;95723.72;;;4.46;100.00
596;BME280;19946;49.306;11.350;2023-03-13T02:34:18;95775.25;;;4.77;100.00
596;BME280;19946;49.306;11.350;2023-03-13T02:37:20;95728.31;;;4.53;100.00
596;BME280;19946;49.306;11.350;2023-03-13T02:40:24;95729.97;;;4.54;100.00
596;BME280;19946;49.306;11.350;2023-03-13T02:43:33;95745.25;;;4.67;100.00
596;BME280;19946;49.306;11.350;2023-03-13T02:46:45;95749.84;;;4.74;100.00
596;BME280;19946;49.306;11.350;2023-03-13T02:49:47;95781.03;;;4.92;100.00
596;BME280;19946;49.306;11.350;2023-03-13T02:52:55;95703.00;;;4.49;100.00
596;BME280;19946;49.306;11.350;2023-03-13T02:55:58;95717.16;;;4.54;100.00
596;BME280;19946;49.306;11.350;2023-03-13T02:58:59;95727.41;;;4.65;100.00
596;BME280;19946;49.306;11.350;2023-03-13T03:02:00;95740.25;;;4.65;100.00
596;BME280;19946;49.306;11.350;2023-03-13T03:05:01;95773.44;;;4.91;100.00
596;BME280;19946;49.306;11.350;2023-03-13T03:08:01;95775.91;;;4.92;100.00
596;BME280;19946;49.306;11.350;2023-03-13T03:11:04;95759.69;;;4.92;100.00
596;BME280;19946;49.306;11.350;2023-03-13T03:14:05;95752.22;;;4.89;100.00
596;BME280;19946;49.306;11.350;2023-03-13T03:17:11;95759.13;;;4.99;100.00
596;BME280;19946;49.306;11.350;2023-03-13T03:20:11;95725.94;;;4.74;100.00
596;BME280;19946;49.306;11.350;2023-03-13T03:23:15;95698.53;;;4.63;100.00
596;BME280;19946;49.306;11.350;2023-03-13T03:26:17;95727.94;;;4.82;100.00
596;BME280;19946;49.306;11.350;2023-03-13T03:29:17;95706.56;;;4.70;100.00
596;BME280;19946;49.306;11.350;2023-03-13T03:32:20;95698.84;;;4.59;100.00
596;BME280;19946;49.306;11.350;2023-03-13T03:35:22;95747.34;;;4.97;100.00
596;BME280;19946;49.306;11.350;2023-03-13T03:38:23;95732.63;;;4.88;100.00
596;BME280;19946;49.306;11.350;2023-03-13T03:41:24;95713.13;;;4.74;100.00
596;BME280;19946;49.306;11.350;2023-03-13T03:44:25;95692.69;;;4.61;100.00
596;BME280;19946;49.306;11.350;2023-03-13T03:47:34;95681.50;;;4.62;100.00
596;BME280;19946;49.306;11.350;2023-03-13T03:50:34;95676.44;;;4.50;100.00
596;BME280;19946;49.306;11.350;2023-03-13T03:53:36;95694.69;;;4.69;100.00
596;BME280;19946;49.306;11.350;2023-03-13T03:56:38;95701.47;;;4.81;100.00
596;BME280;19946;49.306;11.350;2023-03-13T03:59:38;95693.91;;;4.80;100.00
596;BME280;19946;49.306;11.350;2023-03-13T04:02:42;95690.03;;;4.74;100.00
596;BME280;19946;49.306;11.350;2023-03-13T04:05:43;95711.88;;;4.91;100.00
596;BME280;19946;49.306;11.350;2023-03-13T04:08:44;95668.94;;;4.70;100.00
596;BME280;19946;49.306;11.350;2023-03-13T04:11:49;95674.53;;;4.75;100.00
596;BME280;19946;49.306;11.350;2023-03-13T04:14:50;95659.16;;;4.75;100.00
596;BME280;19946;49.306;11.350;2023-03-13T04:17:51;95670.94;;;4.89;100.00
596;BME280;19946;49.306;11.350;2023-03-13T04:21:01;95704.34;;;5.11;100.00
596;BME280;19946;49.306;11.350;2023-03-13T04:24:03;95661.16;;;4.83;100.00
596;BME280;19946;49.306;11.350;2023-03-13T04:27:05;95625.53;;;4.67;100.00
596;BME280;19946;49.306;11.350;2023-03-13T04:30:07;95691.72;;;5.20;100.00
596;BME280;19946;49.306;11.350;2023-03-13T04:33:31;95681.47;;;5.20;100.00
596;BME280;19946;49.306;11.350;2023-03-13T04:36:50;95627.56;;;4.86;100.00
596;BME280;19946;49.306;11.350;2023-03-13T04:40:15;95667.69;;;5.21;100.00
596;BME280;19946;49.306;11.350;2023-03-13T04:43:34;95587.34;;;4.75;100.00
596;BME280;19946;49.306;11.350;2023-03-13T04:46:55;95596.19;;;4.83;100.00
596;BME280;19946;49.306;11.350;2023-03-13T04:50:08;95621.66;;;5.08;100.00
596;BME280;19946;49.306;11.350;2023-03-13T04:53:16;95580.81;;;4.94;100.00
596;BME280;19946;49.306;11.350;2023-03-13T04:56:26;95601.69;;;5.11;100.00
596;BME280;19946;49.306;11.350;2023-03-13T04:59:57;95567.50;;;4.89;100.00
596;BME280;19946;49.306;11.350;2023-03-13T05:03:13;95623.84;;;5.35;100.00
596;BME280;19946;49.306;11.350;2023-03-13T05:06:34;95615.44;;;5.33;100.00
596;BME280;19946;49.306;11.350;2023-03-13T05:09:54;95626.41;;;5.35;100.00
596;BME280;19946;49.306;11.350;2023-03-13T05:13:10;95586.41;;;4.99;100.00
596;BME280;19946;49.306;11.350;2023-03-13T05:16:27;95576.94;;;4.99;100.00
596;BME280;19946;49.306;11.350;2023-03-13T05:19:45;95627.81;;;5.28;100.00
596;BME280;19946;49.306;11.350;2023-03-13T05:23:16;95601.69;;;5.11;100.00
596;BME280;19946;49.306;11.350;2023-03-13T05:26:35;95582.78;;;4.90;100.00
596;BME280;19946;49.306;11.350;2023-03-13T05:29:58;95553.19;;;4.75;100.00
596;BME280;19946;49.306;11.350;2023-03-13T05:33:13;95629.47;;;5.18;100.00
596;BME280;19946;49.306;11.350;2023-03-13T05:36:26;95556.09;;;4.82;100.00
596;BME280;19946;49.306;11.350;2023-03-13T05:40:08;95586.41;;;4.99;100.00
596;BME280;19946;49.306;11.350;2023-03-13T05:43:15;95590.72;;;5.09;100.00
596;BME280;19946;49.306;11.350;2023-03-13T05:46:36;95567.50;;;5.00;100.00
596;BME280;19946;49.306;11.350;2023-03-13T05:49:58;95577.44;;;5.04;100.00
596;BME280;19946;49.306;11.350;2023-03-13T05:53:09;95551.78;;;5.04;100.00
596;BME280;19946;49.306;11.350;2023-03-13T05:56:25;95614.38;;;5.35;100.00
596;BME280;19946;49.306;11.350;2023-03-13T05:59:36;95602.34;;;5.47;100.00
596;BME280;19946;49.306;11.350;2023-03-13T06:02:57;95586.59;;;5.52;100.00
596;BME280;19946;49.306;11.350;2023-03-13T06:06:05;95586.72;;;5.50;100.00
596;BME280;19946;49.306;11.350;2023-03-13T06:09:10;95538.22;;;5.13;100.00
596;BME280;19946;49.306;11.350;2023-03-13T06:12:11;95548.25;;;5.28;100.00
596;BME280;19946;49.306;11.350;2023-03-13T06:15:12;95559.53;;;5.36;100.00
596;BME280;19946;49.306;11.350;2023-03-13T06:18:32;95520.25;;;5.13;100.00
596;BME280;19946;49.306;11.350;2023-03-13T06:21:33;95587.16;;;5.55;100.00
596;BME280;19946;49.306;11.350;2023-03-13T06:24:34;95519.34;;;5.14;100.00
596;BME280;19946;49.306;11.350;2023-03-13T06:27:35;95530.66;;;5.12;100.00
596;BME280;19946;49.306;11.350;2023-03-13T06:30:35;95559.88;;;5.32;100.00
596;BME280;19946;49.306;11.350;2023-03-13T06:33:35;95557.81;;;5.26;100.00
596;BME280;19946;49.306;11.350;2023-03-13T06:36:36;95520.38;;;5.12;100.00
596;BME280;19946;49.306;11.350;2023-03-13T06:39:36;95522.94;;;5.12;100.00
596;BME280;19946;49.306;11.350;2023-03-13T06:42:38;95543.81;;;5.30;100.00
596;BME280;19946;49.306;11.350;2023-03-13T06:45:40;95532.34;;;5.34;100.00
596;BME280;19946;49.306;11.350;2023-03-13T06:48:41;95520.34;;;5.23;100.00
596;BME280;19946;49.306;11.350;2023-03-13T06:51:41;95573.84;;;5.61;100.00
596;BME280;19946;49.306;11.350;2023-03-13T06:54:42;95562.88;;;5.59;100.00
596;BME280;19946;49.306;11.350;2023-03-13T06:57:42;95568.81;;;5.71;100.00
596;BME280;19946;49.306;11.350;2023-03-13T07:00:43;95533.72;;;5.49;100.00
596;BME280;19946;49.306;11.350;2023-03-13T07:03:46;95562.34;;;5.76;100.00
596;BME280;19946;49.306;11.350;2023-03-13T07:06:50;95545.03;;;5.58;100.00
596;BME280;19946;49.306;11.350;2023-03-13T07:09:50;95522.72;;;5.58;100.00
596;BME280;19946;49.306;11.350;2023-03-13T07:12:51;95504.44;;;5.52;100.00
596;BME280;19946;49.306;11.350;2023-03-13T07:15:52;95509.56;;;5.52;100.00
596;BME280;19946;49.306;11.350;2023-03-13T07:18:53;95531.75;;;5.73;100.00
596;BME280;19946;49.306;11.350;2023-03-13T07:21:54;95569.31;;;5.97;100.00
596;BME280;19946;49.306;11.350;2023-03-13T07:24:56;95551.72;;;5.92;100.00
596;BME280;19946;49.306;11.350;2023-03-13T07:27:56;95499.50;;;5.60;100.00
596;BME280;19946;49.306;11.350;2023-03-13T07:31:15;95552.25;;;5.96;100.00
596;BME280;19946;49.306;11.350;2023-03-13T07:34:15;95527.91;;;5.79;100.00
596;BME280;19946;49.306;11.350;2023-03-13T07:37:17;95515.88;;;5.79;100.00
596;BME280;19946;49.306;11.350;2023-03-13T07:40:17;95516.78;;;5.90;100.00
596;BME280;19946;49.306;11.350;2023-03-13T07:43:18;95559.25;;;6.26;100.00
596;BME280;19946;49.306;11.350;2023-03-13T07:46:22;95501.19;;;6.02;100.00
596;BME280;19946;49.306;11.350;2023-03-13T07:49:24;95484.50;;;5.97;100.00
596;BME280;19946;49.306;11.350;2023-03-13T07:52:25;95508.44;;;6.18;100.00
596;BME280;19946;49.306;11.350;2023-03-13T07:55:27;95533.84;;;6.32;100.00
596;BME280;19946;49.306;11.350;2023-03-13T07:58:35;95512.34;;;6.33;100.00
596;BME280;19946;49.306;11.350;2023-03-13T08:01:37;95521.41;;;6.58;100.00
596;BME280;19946;49.306;11.350;2023-03-13T08:04:39;95484.22;;;6.41;100.00
596;BME280;19946;49.306;11.350;2023-03-13T08:07:43;95525.06;;;6.86;100.00
596;BME280;19946;49.306;11.350;2023-03-13T08:10:44;95538.53;;;7.09;100.00
596;BME280;19946;49.306;11.350;2023-03-13T08:13:45;95529.94;;;7.29;100.00
596;BME280;19946;49.306;11.350;2023-03-13T08:16:45;95476.38;;;7.13;100.00
596;BME280;19946;49.306;11.350;2023-03-13T08:19:46;95466.09;;;7.23;100.00
596;BME280;19946;49.306;11.350;2023-03-13T08:22:46;95512.91;;;7.57;100.00
596;BME280;19946;49.306;11.350;2023-03-13T08:25:47;95513.03;;;7.65;100.00
596;BME280;19946;49.306;11.350;2023-03-13T08:28:52;95531.22;;;7.92;100.00
596;BME280;19946;49.306;11.350;2023-03-13T08:31:54;95532.31;;;8.09;100.00
596;BME280;19946;49.306;11.350;2023-03-13T08:34:54;95457.56;;;7.70;100.00
596;BME280;19946;49.306;11.350;2023-03-13T08:37:55;95518.19;;;8.13;100.00
596;BME280;19946;49.306;11.350;2023-03-13T08:40:56;95514.94;;;8.21;100.00
596;BME280;19946;49.306;11.350;2023-03-13T08:43:58;95489.00;;;8.13;100.00
596;BME280;19946;49.306;11.350;2023-03-13T08:46:58;95484.94;;;8.10;100.00
596;BME280;19946;49.306;11.350;2023-03-13T08:49:59;95478.69;;;8.13;100.00
596;BME280;19946;49.306;11.350;2023-03-13T08:52:59;95497.13;;;8.37;100.00
596;BME280;19946;49.306;11.350;2023-03-13T08:56:00;95464.81;;;8.23;100.00
596;BME280;19946;49.306;11.350;2023-03-13T08:59:03;95472.72;;;8.31;100.00
596;BME280;19946;49.306;11.350;2023-03-13T09:02:04;95471.63;;;8.34;100.00
596;BME280;19946;49.306;11.350;2023-03-13T09:05:05;95493.84;;;8.54;100.00
596;BME280;19946;49.306;11.350;2023-03-13T09:08:05;95471.28;;;8.56;100.00
596;BME280;19946;49.306;11.350;2023-03-13T09:11:13;95482.38;;;8.76;100.00
596;BME280;19946;49.306;11.350;2023-03-13T09:14:14;95440.13;;;8.40;100.00
596;BME280;19946;49.306;11.350;2023-03-13T09:17:14;95501.34;;;8.85;100.00
596;BME280;19946;49.306;11.350;2023-03-13T09:20:15;95515.13;;;9.03;100.00
596;BME280;19946;49.306;11.350;2023-03-13T09:23:18;95464.50;;;9.10;100.00
596;BME280;19946;49.306;11.350;2023-03-13T09:26:20;95457.69;;;9.36;100.00
596;BME280;19946;49.306;11.350;2023-03-13T09:29:21;95431.84;;;9.54;100.00
596;BME280;19946;49.306;11.350;2023-03-13T09:32:21;95484.94;;;10.19;100.00
596;BME280;19946;49.306;11.350;2023-03-13T09:35:22;95491.16;;;10.52;100.00
596;BME280;19946;49.306;11.350;2023-03-13T09:38:26;95409.81;;;10.29;100.00
596;BME280;19946;49.306;11.350;2023-03-13T09:41:37;95405.56;;;10.20;100.00
596;BME280;19946;49.306;11.350;2023-03-13T09:44:52;95452.59;;;10.75;100.00
596;BME280;19946;49.306;11.350;2023-03-13T09:48:01;95414.56;;;10.76;100.00
596;BME280;19946;49.306;11.350;2023-03-13T09:51:12;95417.06;;;10.93;100.00
596;BME280;19946;49.306;11.350;2023-03-13T09:54:38;95416.22;;;11.51;100.00
596;BME280;19946;49.306;11.350;2023-03-13T09:58:03;95442.19;;;11.67;100.00
596;BME280;19946;49.306;11.350;2023-03-13T10:01:05;95420.38;;;11.28;100.00
596;BME280;19946;49.306;11.350;2023-03-13T10:07:18;95444.84;;;11.25;100.00
596;BME280;19946;49.306;11.350;2023-03-13T10:10:48;95436.28;;;11.33;100.00
596;BME280;19946;49.306;11.350;2023-03-13T10:13:50;95436.75;;;11.20;100.00
596;BME280;19946;49.306;11.350;2023-03-13T10:17:12;95428.00;;;11.29;100.00
596;BME280;19946;49.306;11.350;2023-03-13T10:20:27;95453.47;;;11.34;100.00
596;BME280;19946;49.306;11.350;2023-03-13T10:23:38;95451.34;;;11.38;100.00
596;BME280;19946;49.306;11.350;2023-03-13T10:26:39;95462.88;;;11.59;100.00
596;BME280;19946;49.306;11.350;2023-03-13T10:29:40;95443.94;;;11.59;100.00
596;BME280;19946;49.306;11.350;2023-03-13T10:32:42;95424.16;;;11.58;100.00
596;BME280;19946;49.306;11.350;2023-03-13T10:35:43;95450.78;;;11.84;100.00
596;BME280;19946;49.306;11.350;2023-03-13T10:38:47;95455.84;;;11.78;100.00
596;BME280;19946;49.306;11.350;2023-03-13T10:41:54;95435.19;;;11.60;100.00
596;BME280;19946;49.306;11.350;2023-03-13T10:45:00;95435.38;;;11.66;100.00
596;BME280;19946;49.306;11.350;2023-03-13T10:51:20;95422.88;;;11.54;100.00
596;BME280;19946;49.306;11.350;2023-03-13T10:57:31;95433.56;;;11.51;100.00
596;BME280;19946;49.306;11.350;2023-03-13T11:00:37;95419.41;;;11.29;100.00
596;BME280;19946;49.306;11.350;2023-03-13T11:03:38;95477.47;;;11.60;100.00
596;BME280;19946;49.306;11.350;2023-03-13T11:06:39;95471.00;;;11.56;100.00
596;BME280;19946;49.306;11.350;2023-03-13T11:09:41;95442.28;;;11.33;100.00
596;BME280;19946;49.306;11.350;2023-03-13T11:12:50;95479.09;;;11.61;100.00
596;BME280;19946;49.306;11.350;2023-03-13T11:15:56;95412.09;;;11.16;100.00
596;BME280;19946;49.306;11.350;2023-03-13T11:19:23;95436.94;;;11.35;100.00
596;BME280;19946;49.306;11.350;2023-03-13T11:22:35;95467.09;;;11.52;100.00
596;BME280;19946;49.306;11.350;2023-03-13T11:32:30;95407.28;;;11.38;100.00
596;BME280;19946;49.306;11.350;2023-03-13T11:36:09;95435.06;;;11.86;100.00
596;BME280;19946;49.306;11.350;2023-03-13T11:46:24;95421.75;;;12.13;100.00
596;BME280;19946;49.306;11.350;2023-03-13T12:03:23;95359.97;;;12.64;100.00
596;BME280;19946;49.306;11.350;2023-03-13T12:06:50;95364.00;;;12.66;100.00
596;BME280;19946;49.306;11.350;2023-03-13T12:10:26;95395.97;;;12.75;100.00
596;BME280;19946;49.306;11.350;2023-03-13T12:13:33;95373.34;;;12.44;100.00
596;BME280;19946;49.306;11.350;2023-03-13T12:16:40;95379.22;;;12.38;100.00
596;BME280;19946;49.306;11.350;2023-03-13T12:19:53;95402.19;;;12.58;100.00
596;BME280;19946;49.306;11.350;2023-03-13T12:26:12;95394.06;;;12.61;100.00
596;BME280;19946;49.306;11.350;2023-03-13T12:29:42;95379.50;;;12.52;100.00
596;BME280;19946;49.306;11.350;2023-03-13T12:36:03;95382.38;;;12.57;100.00
596;BME280;19946;49.306;11.350;2023-03-13T12:42:56;95347.34;;;12.53;100.00
596;BME280;19946;49.306;11.350;2023-03-13T12:59:03;95301.69;;;13.43;100.00
596;BME280;19946;49.306;11.350;2023-03-13T13:05:19;95299.84;;;13.66;100.00
596;BME280;19946;49.306;11.350;2023-03-13T13:08:23;95258.91;;;13.45;100.00
596;BME280;19946;49.306;11.350;2023-03-13T13:14:54;95211.59;;;13.79;100.00
596;BME280;19946;49.306;11.350;2023-03-13T13:18:10;95264.81;;;14.21;100.00
596;BME280;19946;49.306;11.350;2023-03-13T13:21:18;95249.91;;;14.44;100.00
596;BME280;19946;49.306;11.350;2023-03-13T13:24:46;95242.88;;;14.59;100.00
596;BME280;19946;49.306;11.350;2023-03-13T13:27:48;95240.66;;;14.78;100.00
596;BME280;19946;49.306;11.350;2023-03-13T13:30:51;95189.16;;;15.01;100.00
596;BME280;19946;49.306;11.350;2023-03-13T13:33:52;95177.84;;;14.51;100.00
596;BME280;19946;49.306;11.350;2023-03-13T13:36:53;95203.00;;;14.80;100.00
596;BME280;19946;49.306;11.350;2023-03-13T13:43:21;95164.22;;;14.92;100.00
596;BME280;19946;49.306;11.350;2023-03-13T13:46:25;95215.31;;;15.14;100.00
596;BME280;19946;49.306;11.350;2023-03-13T13:49:33;95205.78;;;15.21;100.00
596;BME280;19946;49.306;11.350;2023-03-13T13:52:39;95170.88;;;15.22;100.00
596;BME280;19946;49.306;11.350;2023-03-13T13:55:42;95161.59;;;15.41;100.00
596;BME280;19946;49.306;11.350;2023-03-13T13:58:44;95119.88;;;15.13;100.00
596;BME280;19946;49.306;11.350;2023-03-13T14:01:46;95164.75;;;15.09;100.00
596;BME280;19946;49.306;11.350;2023-03-13T14:04:51;95154.75;;;15.68;100.00
596;BME280;19946;49.306;11.350;2023-03-13T14:08:30;95154.53;;;15.63;100.00
596;BME280;19946;49.306;11.350;2023-03-13T14:11:36;95118.47;;;15.45;100.00
596;BME280;19946;49.306;11.350;2023-03-13T14:14:37;95131.88;;;15.36;100.00
596;BME280;19946;49.306;11.350;2023-03-13T14:17:46;95095.63;;;15.19;100.00
596;BME280;19946;49.306;11.350;2023-03-13T14:20:51;95129.41;;;15.55;100.00
596;BME280;19946;49.306;11.350;2023-03-13T14:23:52;95107.41;;;15.43;100.00
596;BME280;19946;49.306;11.350;2023-03-13T14:26:53;95114.19;;;15.38;100.00
596;BME280;19946;49.306;11.350;2023-03-13T14:30:05;95104.59;;;15.10;100.00
596;BME280;19946;49.306;11.350;2023-03-13T14:33:08;95076.75;;;15.17;100.00
596;BME280;19946;49.306;11.350;2023-03-13T14:36:09;95108.78;;;15.39;100.00
596;BME280;19946;49.306;11.350;2023-03-13T14:39:17;95100.34;;;15.37;100.00
596;BME280;19946;49.306;11.350;2023-03-13T14:42:18;95051.47;;;15.11;100.00
596;BME280;19946;49.306;11.350;2023-03-13T14:45:22;95065.00;;;15.28;100.00
596;BME280;19946;49.306;11.350;2023-03-13T14:48:29;95028.00;;;15.11;100.00
596;BME280;19946;49.306;11.350;2023-03-13T14:51:30;95065.09;;;15.48;100.00
596;BME280;19946;49.306;11.350;2023-03-13T14:54:33;95045.50;;;15.58;100.00
596;BME280;19946;49.306;11.350;2023-03-13T14:57:34;95018.47;;;15.31;100.00
596;BME280;19946;49.306;11.350;2023-03-13T15:00:39;95038.28;;;15.60;100.00
596;BME280;19946;49.306;11.350;2023-03-13T15:03:43;95032.56;;;15.78;100.00
596;BME280;19946;49.306;11.350;2023-03-13T15:06:45;95014.19;;;15.58;100.00
596;BME280;19946;49.306;11.350;2023-03-13T15:09:46;94977.97;;;15.36;100.00
596;BME280;19946;49.306;11.350;2023-03-13T15:12:48;95016.84;;;15.65;100.00
596;BME280;19946;49.306;11.350;2023-03-13T15:15:50;95010.44;;;15.74;100.00
596;BME280;19946;49.306;11.350;2023-03-13T15:18:52;94999.38;;;15.72;100.00
596;BME280;19946;49.306;11.350;2023-03-13T15:21:52;94978.69;;;15.64;100.00
596;BME280;19946;49.306;11.350;2023-03-13T15:24:54;94972.78;;;15.49;100.00
596;BME280;19946;49.306;11.350;2023-03-13T15:27:54;94979.44;;;15.51;100.00
596;BME280;19946;49.306;11.350;2023-03-13T15:30:54;94966.34;;;15.38;100.00
596;BME280;19946;49.306;11.350;2023-03-13T15:33:57;94950.84;;;15.23;100.00
596;BME280;19946;49.306;11.350;2023-03-13T15:36:58;94973.53;;;15.29;100.00
596;BME280;19946;49.306;11.350;2023-03-13T15:39:58;94957.69;;;15.31;100.00
596;BME280;19946;49.306;11.350;2023-03-13T15:42:59;94949.44;;;15.27;100.00
596;BME280;19946;49.306;11.350;2023-03-13T15:46:00;94944.59;;;15.18;100.00
596;BME280;19946;49.306;11.350;2023-03-13T15:49:00;94937.13;;;15.08;100.00
596;BME280;19946;49.306;11.350;2023-03-13T15:52:01;94890.09;;;14.82;100.00
596;BME280;19946;49.306;11.350;2023-03-13T15:55:01;94897.16;;;14.88;100.00
596;BME280;19946;49.306;11.350;2023-03-13T15:58:01;94914.81;;;14.92;100.00
596;BME280;19946;49.306;11.350;2023-03-13T16:01:02;94881.63;;;14.67;100.00
596;BME280;19946;49.306;11.350;2023-03-13T16:04:03;94854.47;;;14.48;100.00
596;BME280;19946;49.306;11.350;2023-03-13T16:07:08;94896.59;;;14.58;100.00
596;BME280;19946;49.306;11.350;2023-03-13T16:10:18;94828.50;;;14.33;100.00
596;BME280;19946;49.306;11.350;2023-03-13T16:13:20;94835.63;;;14.18;100.00
596;BME280;19946;49.306;11.350;2023-03-13T16:16:24;94853.47;;;14.21;100.00
596;BME280;19946;49.306;11.350;2023-03-13T16:19:28;94849.88;;;14.22;100.00
596;BME280;19946;49.306;11.350;2023-03-13T16:22:29;94817.47;;;13.97;100.00
596;BME280;19946;49.306;11.350;2023-03-13T16:25:31;94826.94;;;14.04;100.00
596;BME280;19946;49.306;11.350;2023-03-13T16:28:32;94817.09;;;14.00;100.00
596;BME280;19946;49.306;11.350;2023-03-13T16:31:34;94840.78;;;14.11;100.00
596;BME280;19946;49.306;11.350;2023-03-13T16:34:35;94842.50;;;13.98;100.00
596;BME280;19946;49.306;11.350;2023-03-13T16:37:36;94821.53;;;13.78;100.00
596;BME280;19946;49.306;11.350;2023-03-13T16:40:36;94822.66;;;13.69;100.00
596;BME280;19946;49.306;11.350;2023-03-13T16:43:37;94783.66;;;13.41;100.00
596;BME280;19946;49.306;11.350;2023-03-13T16:46:41;94805.84;;;13.43;100.00
596;BME280;19946;49.306;11.350;2023-03-13T16:49:45;94767.28;;;13.04;100.00
596;BME280;19946;49.306;11.350;2023-03-13T16:52:46;94796.09;;;13.09;100.00
596;BME280;19946;49.306;11.350;2023-03-13T16:55:50;94756.53;;;12.86;100.00
596;BME280;19946;49.306;11.350;2023-03-13T16:58:52;94735.91;;;12.63;100.00
596;BME280;19946;49.306;11.350;2023-03-13T17:02:16;94748.50;;;12.66;100.00
596;BME280;19946;49.306;11.350;2023-03-13T17:05:17;94758.84;;;12.60;100.00
596;BME280;19946;49.306;11.350;2023-03-13T17:08:18;94784.78;;;12.74;100.00
596;BME280;19946;49.306;11.350;2023-03-13T17:11:19;94747.94;;;12.50;100.00
596;BME280;19946;49.306;11.350;2023-03-13T17:14:20;94772.09;;;12.65;100.00
596;BME280;19946;49.306;11.350;2023-03-13T17:17:21;94786.13;;;12.70;100.00
596;BME280;19946;49.306;11.350;2023-03-13T17:20:24;94778.72;;;12.53;100.00
596;BME280;19946;49.306;11.350;2023-03-13T17:23:25;94775.66;;;12.64;100.00
596;BME280;19946;49.306;11.350;2023-03-13T17:26:31;94771.38;;;12.56;100.00
596;BME280;19946;49.306;11.350;2023-03-13T17:29:32;94755.44;;;12.44;100.00
596;BME280;19946;49.306;11.350;2023-03-13T17:32:32;94720.22;;;12.35;100.00
596;BME280;19946;49.306;11.350;2023-03-13T17:35:33;94775.91;;;12.69;100.00
596;BME280;19946;49.306;11.350;2023-03-13T17:38:33;94757.22;;;12.59;100.00
596;BME280;19946;49.306;11.350;2023-03-13T17:41:36;94727.94;;;12.29;100.00
596;BME280;19946;49.306;11.350;2023-03-13T17:44:36;94733.41;;;12.19;100.00